createdAt,value
2023-08-17T00:00:11.681Z,97046.38
2023-08-17T00:02:41.616Z,97052.22
2023-08-17T00:05:12.206Z,97048.25
2023-08-17T00:07:41.026Z,97037.69
2023-08-17T00:10:10.566Z,97032.22
2023-08-17T00:12:39.554Z,97034.88
2023-08-17T00:15:09.389Z,97028.13
2023-08-17T00:17:38.409Z,97037.94
2023-08-17T00:20:11.165Z,97041.41
2023-08-17T00:22:41.713Z,97036.66
2023-08-17T00:25:12.089Z,97036.22
2023-08-17T00:27:40.921Z,97040.84
2023-08-17T00:30:10.634Z,97038.78
2023-08-17T00:32:40.137Z,97042.19
2023-08-17T00:35:10.230Z,97037.03
2023-08-17T00:37:40.603Z,97029.16
2023-08-17T00:40:10.593Z,97031.44
2023-08-17T00:42:39.302Z,97030.63
2023-08-17T00:45:09.619Z,97030.66
2023-08-17T00:47:38.846Z,97029.88
2023-08-17T00:50:09.375Z,97023.25
2023-08-17T00:52:38.144Z,97028.31
2023-08-17T00:55:09.428Z,97027.13
2023-08-17T00:57:39.724Z,97038.50
2023-08-17T01:00:10.300Z,97027.56
2023-08-17T01:02:39.979Z,97042.28
2023-08-17T01:05:09.782Z,97034.56
2023-08-17T01:07:39.180Z,97034.63
2023-08-17T01:10:12.619Z,97044.81
2023-08-17T01:12:55.432Z,97038.19
2023-08-17T01:15:30.484Z,97038.63
2023-08-17T01:18:04.557Z,97028.41
2023-08-17T01:20:35.576Z,97036.63
2023-08-17T01:23:07.438Z,97037.00
2023-08-17T01:25:37.954Z,97036.91
2023-08-17T01:28:07.487Z,97038.06
2023-08-17T01:30:41.377Z,97032.59
2023-08-17T01:33:10.748Z,97027.13
2023-08-17T01:35:42.314Z,97029.88
2023-08-17T01:38:18.370Z,97032.59
2023-08-17T01:40:47.853Z,97036.81
2023-08-17T01:43:17.466Z,97026.59
2023-08-17T01:45:47.049Z,97025.81
2023-08-17T01:48:16.230Z,97021.13
2023-08-17T01:50:46.264Z,97029.78
2023-08-17T01:53:16.643Z,97038.28
2023-08-17T01:55:45.345Z,97024.63
2023-08-17T01:58:14.275Z,97023.03
2023-08-17T02:00:43.226Z,97025.34
2023-08-17T02:03:12.133Z,97030.38
2023-08-17T02:05:41.578Z,97034.69
2023-08-17T02:08:10.327Z,97035.00
2023-08-17T02:10:40.820Z,97047.50
2023-08-17T02:13:17.915Z,97031.81
2023-08-17T02:15:47.788Z,97027.09
2023-08-17T02:18:16.847Z,97025.50
2023-08-17T02:20:45.901Z,97017.66
2023-08-17T02:23:14.829Z,97028.25
2023-08-17T02:25:45.249Z,97025.50
2023-08-17T02:28:15.738Z,97016.88
2023-08-17T02:30:46.358Z,97023.94
2023-08-17T02:33:15.307Z,97028.56
2023-08-17T02:35:44.101Z,97025.34
2023-08-17T02:38:12.795Z,97032.28
2023-08-17T02:40:41.659Z,97038.03
2023-08-17T02:43:12.101Z,97041.50
2023-08-17T02:45:41.592Z,97032.53
2023-08-17T02:48:10.670Z,97036.63
2023-08-17T02:50:39.488Z,97031.19
2023-08-17T02:53:08.211Z,97029.31
2023-08-17T02:55:37.218Z,97023.06
2023-08-17T02:58:06.892Z,97021.03
2023-08-17T03:00:37.437Z,97012.00
2023-08-17T03:03:06.750Z,97020.13
2023-08-17T03:05:36.435Z,97009.13
2023-08-17T03:08:06.528Z,97011.06
2023-08-17T03:10:35.017Z,97013.78
2023-08-17T03:13:03.888Z,97014.06
2023-08-17T03:15:32.918Z,97016.31
2023-08-17T03:18:03.428Z,97019.19
2023-08-17T03:20:32.472Z,97023.97
2023-08-17T03:23:01.506Z,97033.06
2023-08-17T03:25:30.624Z,97027.59
2023-08-17T03:27:59.576Z,97021.00
2023-08-17T03:30:29.032Z,97024.56
2023-08-17T03:32:57.912Z,97011.38
2023-08-17T03:35:29.409Z,97002.38
2023-08-17T03:37:58.494Z,97010.56
2023-08-17T03:40:27.468Z,97018.78
2023-08-17T03:42:56.242Z,97016.75
2023-08-17T03:45:25.008Z,97019.31
2023-08-17T03:47:54.512Z,97022.66
2023-08-17T03:50:24.256Z,97023.38
2023-08-17T03:52:54.761Z,97029.41
2023-08-17T03:55:24.650Z,97034.13
2023-08-17T03:57:53.899Z,97024.56
2023-08-17T04:00:22.876Z,97021.47
2023-08-17T04:02:57.940Z,97022.25
2023-08-17T04:05:26.831Z,97032.75
2023-08-17T04:07:57.360Z,97031.53
2023-08-17T04:10:26.517Z,97031.53
2023-08-17T04:12:55.318Z,97037.69
2023-08-17T04:15:24.129Z,97033.81
2023-08-17T04:17:53.072Z,97032.66
2023-08-17T04:20:23.727Z,97031.81
2023-08-17T04:22:53.804Z,97038.41
2023-08-17T04:25:24.548Z,97035.22
2023-08-17T04:27:54.430Z,97036.41
2023-08-17T04:30:25.430Z,97032.06
2023-08-17T04:33:01.501Z,97036.41
2023-08-17T04:35:30.504Z,97037.94
2023-08-17T04:37:59.713Z,97030.94
2023-08-17T04:40:30.381Z,97041.34
2023-08-17T04:43:01.449Z,97044.47
2023-08-17T04:45:30.822Z,97042.13
2023-08-17T04:48:00.082Z,97039.03
2023-08-17T04:50:29.694Z,97043.69
2023-08-17T04:52:58.664Z,97045.28
2023-08-17T04:55:27.425Z,97043.69
2023-08-17T04:57:58.997Z,97044.13
2023-08-17T05:00:30.190Z,97043.00
2023-08-17T05:03:00.577Z,97046.56
2023-08-17T05:05:36.912Z,97057.94
2023-08-17T05:08:09.710Z,97061.44
2023-08-17T05:10:39.374Z,97058.72
2023-08-17T05:13:09.727Z,97067.25
2023-08-17T05:15:38.586Z,97072.66
2023-08-17T05:18:10.633Z,97070.34
2023-08-17T05:20:40.604Z,97071.06
2023-08-17T05:23:10.593Z,97074.19
2023-08-17T05:25:40.037Z,97071.75
2023-08-17T05:28:10.911Z,97069.81
2023-08-17T05:30:39.904Z,97076.50
2023-08-17T05:33:09.118Z,97070.34
2023-08-17T05:35:38.156Z,97069.97
2023-08-17T05:38:07.340Z,97070.44
2023-08-17T05:40:36.325Z,97074.47
2023-08-17T05:43:05.666Z,97078.84
2023-08-17T05:45:38.260Z,97071.88
2023-08-17T05:48:08.461Z,97078.66
2023-08-17T05:50:38.059Z,97077.09
2023-08-17T05:53:07.200Z,97084.53
2023-08-17T05:55:36.392Z,97081.81
2023-08-17T05:58:05.832Z,97081.97
2023-08-17T06:00:36.725Z,97082.09
2023-08-17T06:03:06.446Z,97080.16
2023-08-17T06:05:35.711Z,97083.75
2023-08-17T06:08:04.838Z,97089.22
2023-08-17T06:10:34.186Z,97083.38
2023-08-17T06:13:03.151Z,97078.31
2023-08-17T06:15:32.566Z,97074.16
2023-08-17T06:18:02.740Z,97085.47
2023-08-17T06:20:31.790Z,97087.06
2023-08-17T06:23:01.344Z,97080.88
2023-08-17T06:25:30.839Z,97090.81
2023-08-17T06:27:59.853Z,97087.38
2023-08-17T06:30:28.809Z,97085.06
2023-08-17T06:32:58.036Z,97089.81
2023-08-17T06:35:28.909Z,97083.63
2023-08-17T06:37:59.511Z,97084.94
2023-08-17T06:40:28.734Z,97089.75
2023-08-17T06:42:57.610Z,97092.13
2023-08-17T06:45:26.838Z,97086.38
2023-08-17T06:47:56.058Z,97085.53
2023-08-17T06:50:25.145Z,97087.22
2023-08-17T06:52:55.567Z,97088.97
2023-08-17T06:55:24.222Z,97094.56
2023-08-17T06:57:53.188Z,97090.84
2023-08-17T07:00:22.760Z,97104.06
2023-08-17T07:02:55.331Z,97104.22
2023-08-17T07:05:36.276Z,97107.94
2023-08-17T07:08:10.220Z,97103.19
2023-08-17T07:10:39.480Z,97099.09
2023-08-17T07:13:08.274Z,97096.06
2023-08-17T07:15:37.162Z,97107.78
2023-08-17T07:18:06.719Z,97105.59
2023-08-17T07:20:35.522Z,97101.72
2023-08-17T07:23:04.413Z,97110.44
2023-08-17T07:25:35.372Z,97114.47
2023-08-17T07:28:04.176Z,97110.66
2023-08-17T07:30:33.057Z,97111.84
2023-08-17T07:33:02.073Z,97114.00
2023-08-17T07:35:31.002Z,97107.78
2023-08-17T07:38:08.416Z,97108.63
2023-08-17T07:40:40.274Z,97105.63
2023-08-17T07:43:09.252Z,97112.78
2023-08-17T07:45:38.067Z,97111.31
2023-08-17T07:48:07.680Z,97105.13
2023-08-17T07:50:36.703Z,97109.13
2023-08-17T07:53:05.892Z,97097.53
2023-08-17T07:58:10.245Z,97100.41
2023-08-17T08:00:39.366Z,97095.47
2023-08-17T08:03:08.612Z,97092.34
2023-08-17T08:05:37.358Z,97092.44
2023-08-17T08:08:07.222Z,97098.81
2023-08-17T08:10:37.137Z,97095.72
2023-08-17T08:13:07.430Z,97086.84
2023-08-17T08:15:37.994Z,97086.53
2023-08-17T08:18:07.489Z,97092.13
2023-08-17T08:20:36.611Z,97098.81
2023-08-17T08:23:06.102Z,97100.91
2023-08-17T08:25:35.125Z,97090.47
2023-08-17T08:28:03.944Z,97088.22
2023-08-17T08:30:33.128Z,97088.25
2023-08-17T08:33:04.113Z,97087.16
2023-08-17T08:35:33.095Z,97093.94
2023-08-17T08:38:02.559Z,97090.44
2023-08-17T08:40:33.120Z,97083.03
2023-08-17T08:43:02.037Z,97086.59
2023-08-17T08:45:31.268Z,97085.09
2023-08-17T08:48:00.673Z,97083.59
2023-08-17T08:50:34.226Z,97080.19
2023-08-17T08:53:05.818Z,97082.63
2023-08-17T08:55:38.249Z,97083.84
2023-08-17T08:58:09.300Z,97089.44
2023-08-17T09:00:38.515Z,97085.53
2023-08-17T09:03:11.990Z,97089.50
2023-08-17T09:05:42.267Z,97090.31
2023-08-17T09:08:17.620Z,97087.22
2023-08-17T09:10:46.942Z,97087.25
2023-08-17T09:13:15.604Z,97087.72
2023-08-17T09:15:44.787Z,97079.09
2023-08-17T09:18:14.630Z,97078.34
2023-08-17T09:20:48.290Z,97073.31
2023-08-17T09:23:21.923Z,97075.28
2023-08-17T09:25:53.348Z,97076.88
2023-08-17T09:28:22.406Z,97073.41
2023-08-17T09:30:55.818Z,97067.94
2023-08-17T09:33:25.690Z,97060.88
2023-08-17T09:35:59.733Z,97070.69
2023-08-17T09:38:29.962Z,97067.97
2023-08-17T09:41:00.406Z,97072.69
2023-08-17T09:43:32.288Z,97060.09
2023-08-17T09:46:03.136Z,97064.84
2023-08-17T09:48:34.109Z,97066.44
2023-08-17T09:51:07.043Z,97064.06
2023-08-17T09:53:38.453Z,97060.94
2023-08-17T09:56:17.855Z,97060.97
2023-08-17T09:58:46.742Z,97064.91
2023-08-17T10:01:15.973Z,97061.38
2023-08-17T10:03:46.960Z,97064.16
2023-08-17T10:08:55.825Z,97056.69
2023-08-17T10:11:25.874Z,97068.88
2023-08-17T10:14:00.206Z,97064.16
2023-08-17T10:16:32.383Z,97057.09
2023-08-17T10:19:08.762Z,97056.28
2023-08-17T10:21:42.521Z,97057.84
2023-08-17T10:24:11.781Z,97058.25
2023-08-17T10:26:41.882Z,97053.13
2023-08-17T10:29:15.565Z,97056.66
2023-08-17T10:31:47.920Z,97050.34
2023-08-17T10:34:17.929Z,97055.47
2023-08-17T10:36:48.403Z,97042.47
2023-08-17T10:39:21.187Z,97043.59
2023-08-17T10:41:51.603Z,97045.16
2023-08-17T10:44:25.994Z,97042.81
2023-08-17T10:46:55.351Z,97043.59
2023-08-17T10:49:27.793Z,97042.78
2023-08-17T10:52:05.801Z,97038.84
2023-08-17T10:54:41.557Z,97037.22
2023-08-17T10:57:32.126Z,97033.25
2023-08-17T11:00:23.062Z,97035.63
2023-08-17T11:02:56.209Z,97040.31
2023-08-17T11:05:38.994Z,97036.75
2023-08-17T11:08:11.572Z,97034.44
2023-08-17T11:10:41.137Z,97028.84
2023-08-17T11:13:10.876Z,97027.66
2023-08-17T11:15:43.744Z,97031.56
2023-08-17T11:18:13.726Z,97030.78
2023-08-17T11:20:44.061Z,97031.56
2023-08-17T11:23:14.170Z,97024.47
2023-08-17T11:25:44.994Z,97016.91
2023-08-17T11:28:15.639Z,97015.25
2023-08-17T11:30:47.808Z,97016.84
2023-08-17T11:33:17.131Z,97007.78
2023-08-17T11:35:47.024Z,97005.81
2023-08-17T11:38:18.353Z,97009.69
2023-08-17T11:40:48.003Z,97005.66
2023-08-17T11:45:54.471Z,97007.56
2023-08-17T11:48:24.086Z,97011.06
2023-08-17T11:50:54.022Z,97001.94
2023-08-17T11:53:27.797Z,97003.47
2023-08-17T11:55:57.881Z,97003.41
2023-08-17T11:58:39.865Z,97002.13
2023-08-17T12:01:11.818Z,96995.72
2023-08-17T12:03:42.505Z,96996.59
2023-08-17T12:06:14.382Z,96991.41
2023-08-17T12:08:47.435Z,96991.84
2023-08-17T12:11:18.300Z,96989.81
2023-08-17T12:13:52.419Z,96987.81
2023-08-17T12:16:22.287Z,96982.97
2023-08-17T12:18:51.960Z,96992.47
2023-08-17T12:21:23.124Z,96990.47
2023-08-17T12:23:54.262Z,96984.13
2023-08-17T12:26:24.310Z,96976.19
2023-08-17T12:28:53.703Z,96970.56
2023-08-17T12:31:26.243Z,96963.06
2023-08-17T12:33:57.405Z,96961.41
2023-08-17T12:36:29.126Z,96955.44
2023-08-17T12:39:03.051Z,96964.97
2023-08-17T12:41:33.789Z,96960.22
2023-08-17T12:44:03.140Z,96955.44
2023-08-17T12:46:34.193Z,96940.50
2023-08-17T12:49:04.882Z,96933.72
2023-08-17T12:51:34.853Z,96941.06
2023-08-17T12:54:07.854Z,96933.00
2023-08-17T12:56:36.385Z,96929.41
2023-08-17T12:59:05.302Z,96934.47
2023-08-17T13:01:34.345Z,96938.41
2023-08-17T13:04:06.271Z,96920.53
2023-08-17T13:06:47.648Z,96915.13
2023-08-17T13:09:20.764Z,96929.47
2023-08-17T13:11:53.700Z,96923.88
2023-08-17T13:14:24.036Z,96922.22
2023-08-17T13:16:56.098Z,96927.84
2023-08-17T13:19:24.770Z,96924.09
2023-08-17T13:21:53.666Z,96920.47
2023-08-17T13:24:24.099Z,96914.38
2023-08-17T13:26:56.192Z,96919.69
2023-08-17T13:29:24.964Z,96912.09
2023-08-17T13:31:53.944Z,96914.38
2023-08-17T13:34:23.063Z,96906.44
2023-08-17T13:36:54.033Z,96904.84
2023-08-17T13:39:24.841Z,96909.91
2023-08-17T13:41:53.846Z,96904.25
2023-08-17T13:44:25.149Z,96906.31
2023-08-17T13:46:57.495Z,96903.66
2023-08-17T13:49:26.791Z,96895.47
2023-08-17T13:51:55.381Z,96898.59
2023-08-17T13:54:28.148Z,96899.31
2023-08-17T13:56:57.185Z,96900.88
2023-08-17T13:59:31.201Z,96900.88
2023-08-17T14:02:00.084Z,96892.91
2023-08-17T14:04:31.901Z,96898.47
2023-08-17T14:07:00.867Z,96894.59
2023-08-17T14:09:32.517Z,96892.13
2023-08-17T14:12:03.930Z,96886.44
2023-08-17T14:14:32.828Z,96885.84
2023-08-17T14:17:01.665Z,96895.94
2023-08-17T14:19:32.132Z,96890.84
2023-08-17T14:22:02.894Z,96875.75
2023-08-17T14:24:33.920Z,96872.19
2023-08-17T14:27:03.831Z,96872.25
2023-08-17T14:29:35.857Z,96860.88
2023-08-17T14:32:05.421Z,96860.41
2023-08-17T14:34:34.004Z,96854.75
2023-08-17T14:37:06.090Z,96851.75
2023-08-17T14:39:39.328Z,96844.88
2023-08-17T14:42:08.715Z,96836.22
2023-08-17T14:44:38.397Z,96840.75
2023-08-17T14:47:12.702Z,96839.00
2023-08-17T14:49:43.359Z,96835.03
2023-08-17T14:52:13.924Z,96832.97
2023-08-17T14:54:44.266Z,96827.63
2023-08-17T14:57:13.032Z,96832.09
2023-08-17T14:59:43.265Z,96827.72
2023-08-17T15:02:12.701Z,96823.06
2023-08-17T15:04:41.829Z,96818.50
2023-08-17T15:07:12.526Z,96822.91
2023-08-17T15:09:41.396Z,96813.19
2023-08-17T15:12:14.052Z,96812.50
2023-08-17T15:14:42.774Z,96819.06
2023-08-17T15:17:13.859Z,96824.56
2023-08-17T15:19:42.787Z,96827.97
2023-08-17T15:22:15.784Z,96829.00
2023-08-17T15:24:47.767Z,96821.84
2023-08-17T15:27:18.222Z,96818.34
2023-08-17T15:29:46.906Z,96829.75
2023-08-17T15:32:15.847Z,96834.69
2023-08-17T15:34:44.635Z,96842.44
2023-08-17T15:37:16.082Z,96848.56
2023-08-17T15:39:45.035Z,96849.50
2023-08-17T15:42:13.985Z,96853.59
2023-08-17T15:44:44.364Z,96854.75
2023-08-17T15:47:13.515Z,96853.63
2023-08-17T15:49:41.937Z,96849.38
2023-08-17T15:52:12.438Z,96856.06
2023-08-17T15:54:41.445Z,96853.28
2023-08-17T15:57:11.826Z,96849.63
2023-08-17T15:59:41.219Z,96854.31
2023-08-17T16:02:11.487Z,96860.75
2023-08-17T16:04:40.454Z,96861.97
2023-08-17T16:07:09.403Z,96859.66
2023-08-17T16:09:38.847Z,96865.75
2023-08-17T16:12:08.493Z,96858.03
2023-08-17T16:14:37.073Z,96853.59
2023-08-17T16:17:05.846Z,96845.88
2023-08-17T16:19:36.321Z,96849.00
2023-08-17T16:22:05.077Z,96846.31
2023-08-17T16:24:34.093Z,96847.19
2023-08-17T16:27:03.627Z,96838.88
2023-08-17T16:29:32.643Z,96843.38
2023-08-17T16:32:09.225Z,96841.22
2023-08-17T16:34:40.402Z,96851.16
2023-08-17T16:37:10.998Z,96853.41
2023-08-17T16:39:40.295Z,96849.28
2023-08-17T16:42:09.247Z,96847.78
2023-08-17T16:44:38.074Z,96860.53
2023-08-17T16:47:07.172Z,96864.59
2023-08-17T16:49:37.649Z,96869.34
2023-08-17T16:52:08.701Z,96874.66
2023-08-17T16:54:37.441Z,96875.38
2023-08-17T16:57:06.347Z,96883.34
2023-08-17T16:59:35.229Z,96881.84
2023-08-17T17:02:04.407Z,96883.47
2023-08-17T17:04:33.690Z,96893.50
2023-08-17T17:07:02.901Z,96888.09
2023-08-17T17:09:33.644Z,96895.16
2023-08-17T17:12:02.902Z,96901.63
2023-08-17T17:14:32.045Z,96895.28
2023-08-17T17:17:00.861Z,96905.69
2023-08-17T17:19:29.613Z,96909.84
2023-08-17T17:21:58.910Z,96926.50
2023-08-17T17:24:27.959Z,96927.38
2023-08-17T17:26:59.428Z,96931.75
2023-08-17T17:29:28.415Z,96943.13
2023-08-17T17:31:57.003Z,96945.84
2023-08-17T17:34:25.862Z,96955.03
2023-08-17T17:36:55.858Z,96953.34
2023-08-17T17:39:24.901Z,96963.69
2023-08-17T17:41:55.114Z,96974.00
2023-08-17T17:44:26.491Z,96980.00
2023-08-17T17:46:55.478Z,96997.25
2023-08-17T17:49:24.661Z,97001.38
2023-08-17T17:51:53.415Z,97008.88
2023-08-17T17:54:22.522Z,97015.69
2023-08-17T17:56:51.787Z,97020.22
2023-08-17T17:59:21.447Z,97030.97
2023-08-17T18:01:51.692Z,97048.41
2023-08-17T18:04:20.041Z,97074.38
2023-08-17T18:06:48.942Z,97077.53
2023-08-17T18:09:17.732Z,97093.25
2023-08-17T18:11:46.482Z,97101.91
2023-08-17T18:14:16.032Z,97118.69
2023-08-17T18:16:45.066Z,97125.34
2023-08-17T18:19:16.027Z,97142.34
2023-08-17T18:21:44.596Z,97152.91
2023-08-17T18:24:13.601Z,97161.59
2023-08-17T18:26:42.560Z,97144.69
2023-08-17T18:29:15.858Z,97133.19
2023-08-17T18:31:45.938Z,97123.31
2023-08-17T18:34:16.439Z,97100.50
2023-08-17T18:36:45.606Z,97104.09
2023-08-17T18:39:14.585Z,97107.50
2023-08-17T18:41:43.326Z,97114.69
2023-08-17T18:44:12.358Z,97141.97
2023-08-17T18:46:41.933Z,97149.56
2023-08-17T18:49:10.850Z,97133.53
2023-08-17T18:51:41.314Z,97129.88
2023-08-17T18:54:10.106Z,97126.72
2023-08-17T18:56:38.915Z,97126.69
2023-08-17T18:59:08.031Z,97129.13
2023-08-17T19:01:37.459Z,97143.69
2023-08-17T19:04:07.042Z,97150.44
2023-08-17T19:06:36.190Z,97149.66
2023-08-17T19:09:07.399Z,97152.94
2023-08-17T19:11:36.338Z,97151.28
2023-08-17T19:14:05.628Z,97161.91
2023-08-17T19:16:34.880Z,97165.19
2023-08-17T19:19:04.604Z,97171.53
2023-08-17T19:21:33.552Z,97171.72
2023-08-17T19:24:02.711Z,97156.38
2023-08-17T19:26:33.002Z,97171.94
2023-08-17T19:29:01.871Z,97171.97
2023-08-17T19:31:30.880Z,97169.56
2023-08-17T19:34:01.430Z,97161.44
2023-08-17T19:36:30.275Z,97167.13
2023-08-17T19:38:59.981Z,97170.75
2023-08-17T19:41:28.614Z,97175.91
2023-08-17T19:43:59.098Z,97179.44
2023-08-17T19:46:28.265Z,97168.94
2023-08-17T19:48:57.438Z,97180.53
2023-08-17T19:51:26.338Z,97186.88
2023-08-17T19:53:54.751Z,97196.28
2023-08-17T19:56:23.476Z,97191.16
2023-08-17T19:58:52.114Z,97175.03
2023-08-17T20:01:23.949Z,97180.41
2023-08-17T20:03:54.760Z,97181.34
2023-08-17T20:06:24.082Z,97174.09
2023-08-17T20:08:53.196Z,97175.78
2023-08-17T20:11:21.919Z,97182.09
2023-08-17T20:13:51.740Z,97188.50
2023-08-17T20:16:22.359Z,97201.47
2023-08-17T20:18:51.562Z,97202.63
2023-08-17T20:21:20.414Z,97213.28
2023-08-17T20:23:49.850Z,97219.22
2023-08-17T20:26:18.951Z,97228.34
2023-08-17T20:28:48.194Z,97225.50
2023-08-17T20:31:17.230Z,97220.75
2023-08-17T20:36:16.236Z,97199.94
2023-08-17T20:38:45.984Z,97199.72
2023-08-17T20:41:14.956Z,97197.75
2023-08-17T20:43:43.780Z,97189.53
2023-08-17T20:46:12.811Z,97185.13
2023-08-17T20:48:41.898Z,97189.88
2023-08-17T20:51:12.581Z,97190.84
2023-08-17T20:53:42.042Z,97186.31
2023-08-17T20:56:10.956Z,97192.28
2023-08-17T20:58:39.962Z,97191.13
2023-08-17T21:01:09.231Z,97191.94
2023-08-17T21:03:38.266Z,97195.19
2023-08-17T21:06:08.641Z,97196.41
2023-08-17T21:08:39.233Z,97203.50
2023-08-17T21:11:08.551Z,97201.56
2023-08-17T21:13:38.703Z,97201.19
2023-08-17T21:16:09.930Z,97203.91
2023-08-17T21:18:39.071Z,97201.31
2023-08-17T21:21:07.752Z,97186.03
2023-08-17T21:23:38.353Z,97189.25
2023-08-17T21:26:07.422Z,97191.56
2023-08-17T21:28:36.439Z,97194.50
2023-08-17T21:31:06.168Z,97193.03
2023-08-17T21:33:36.582Z,97188.31
2023-08-17T21:36:06.362Z,97182.13
2023-08-17T21:38:35.338Z,97182.84
2023-08-17T21:41:05.819Z,97167.97
2023-08-17T21:43:34.702Z,97171.44
2023-08-17T21:46:03.440Z,97177.63
2023-08-17T21:48:32.863Z,97180.28
2023-08-17T21:51:04.233Z,97180.88
2023-08-17T21:53:33.177Z,97182.47
2023-08-17T21:56:01.780Z,97180.41
2023-08-17T21:58:32.328Z,97171.31
2023-08-17T22:01:01.461Z,97171.19
2023-08-17T22:03:30.477Z,97160.09
2023-08-17T22:06:04.058Z,97162.50
2023-08-17T22:08:33.539Z,97155.28
2023-08-17T22:11:02.286Z,97153.41
2023-08-17T22:13:32.823Z,97156.38
2023-08-17T22:16:01.720Z,97157.25
2023-08-17T22:18:30.493Z,97155.78
2023-08-17T22:20:59.183Z,97155.59
2023-08-17T22:23:27.927Z,97168.06
2023-08-17T22:25:57.106Z,97171.66
2023-08-17T22:28:26.564Z,97178.41
2023-08-17T22:31:06.020Z,97175.50
2023-08-17T22:33:35.225Z,97185.16
2023-08-17T22:36:04.491Z,97196.13
2023-08-17T22:38:33.390Z,97190.22
2023-08-17T22:41:02.650Z,97186.69
2023-08-17T22:43:31.497Z,97197.06
2023-08-17T22:46:00.645Z,97191.25
2023-08-17T22:48:31.017Z,97194.69
2023-08-17T22:50:59.631Z,97190.84
2023-08-17T22:53:28.285Z,97179.41
2023-08-17T22:55:56.948Z,97184.19
2023-08-17T22:58:25.936Z,97185.47
2023-08-17T23:00:56.149Z,97190.94
2023-08-17T23:03:24.744Z,97180.00
2023-08-17T23:05:55.268Z,97169.63
2023-08-17T23:08:25.390Z,97179.78
2023-08-17T23:10:59.931Z,97181.00
2023-08-17T23:13:28.631Z,97175.22
2023-08-17T23:15:57.542Z,97177.81
2023-08-17T23:18:26.047Z,97174.75
2023-08-17T23:20:56.261Z,97167.63
2023-08-17T23:23:25.649Z,97166.19
2023-08-17T23:25:55.376Z,97160.72
2023-08-17T23:28:24.714Z,97163.44
2023-08-17T23:30:53.626Z,97161.91
2023-08-17T23:33:22.939Z,97155.75
2023-08-17T23:35:51.772Z,97153.78
2023-08-17T23:38:23.071Z,97155.38
2023-08-17T23:40:52.175Z,97142.84
2023-08-17T23:43:21.005Z,97140.13
2023-08-17T23:45:49.696Z,97138.53
2023-08-17T23:48:18.870Z,97130.63
2023-08-17T23:50:47.763Z,97129.78
2023-08-17T23:53:16.562Z,97131.34
2023-08-17T23:55:46.700Z,97131.34
2023-08-17T23:58:16.000Z,97131.28
